Time;durP1;ratioP1;P1;durP2;ratioP2;P2;SDS_P1;SDS_P2;PMS_P1;PMS_P2;Temp;Humidity;BMP_temperature;BMP_pressure;BME280_temperature;BME280_humidity;BME280_pressure;Samples;Min_cycle;Max_cycle;Signal;HPM_P1;HPM_P2
2022/08/10 05:56:56;;;;;;;5.50;5.00;;;;;;;;;;6286898;22;21205;-88
2022/08/10 05:59:27;;;;;;;6.20;5.60;;;;;;;;;;6317391;22;20011;-96
2022/08/10 06:01:54;;;;;;;6.63;5.60;;;;;;;;;;6293028;22;20370;-95
2022/08/10 06:04:29;;;;;;;6.25;5.72;;;;;;;;;;6342645;22;20038;-89
2022/08/10 09:51:37;;;;;;;4.60;4.13;;;;;;;;;;6236277;23;20012;-82
2022/08/10 09:54:19;;;;;;;5.63;4.38;;;;;;;;;;6252366;23;20051;-81
2022/08/10 09:57:06;;;;;;;5.97;4.80;;;;;;;;;;6253708;23;20307;-82
2022/08/10 09:59:56;;;;;;;5.18;4.68;;;;;;;;;;6222044;23;20005;-82
2022/08/10 10:02:37;;;;;;;5.40;4.55;;;;;;;;;;6222968;23;20079;-82
2022/08/10 10:05:13;;;;;;;6.68;4.70;;;;;;;;;;6225518;23;20000;-83
2022/08/10 10:07:44;;;;;;;6.80;4.47;;;;;;;;;;6223493;23;20000;-86
2022/08/10 10:10:23;;;;;;;4.95;4.45;;;;;;;;;;6199733;23;20007;-83
2022/08/10 10:13:02;;;;;;;4.78;4.20;;;;;;;;;;6225465;23;20000;-83
2022/08/10 10:16:02;;;;;;;5.30;3.78;;;;;;;;;;6228621;23;20009;-83
2022/08/10 10:19:06;;;;;;;3.50;3.20;;;;;;;;;;6229685;23;20008;-86
2022/08/10 10:21:45;;;;;;;4.13;3.00;;;;;;;;;;6203527;23;20009;-85
2022/08/10 10:24:30;;;;;;;7.47;3.20;;;;;;;;;;6238095;23;20004;-85
2022/08/10 10:27:52;;;;;;;3.28;2.97;;;;;;;;;;6212393;23;20015;-85
2022/08/10 10:31:10;;;;;;;4.32;2.78;;;;;;;;;;6182173;23;20013;-88
2022/08/10 10:34:33;;;;;;;5.10;2.70;;;;;;;;;;6181057;23;20009;-84
2022/08/10 10:37:00;;;;;;;3.05;2.67;;;;;;;;;;6090664;23;20013;-86
2022/08/10 10:39:27;;;;;;;3.95;2.55;;;;;;;;;;6091310;23;20014;-87
2022/08/10 10:42:21;;;;;;;4.72;2.53;;;;;;;;;;6094560;23;20026;-88
2022/08/10 10:45:10;;;;;;;4.07;2.75;;;;;;;;;;6100496;22;19999;-86
2022/08/10 10:48:01;;;;;;;3.55;2.40;;;;;;;;;;6270270;22;20015;-84
2022/08/10 10:51:04;;;;;;;5.50;2.65;;;;;;;;;;6264415;22;20050;-83
2022/08/10 10:53:38;;;;;;;3.47;2.50;;;;;;;;;;6261531;23;20008;-84
2022/08/10 10:56:23;;;;;;;3.28;2.38;;;;;;;;;;6253040;23;20370;-86
2022/08/10 10:59:12;;;;;;;4.82;2.53;;;;;;;;;;6248047;22;20010;-83
2022/08/10 11:01:50;;;;;;;2.80;2.58;;;;;;;;;;6247832;22;20004;-88
2022/08/10 11:04:52;;;;;;;3.88;2.55;;;;;;;;;;6247809;22;20038;-89
2022/08/10 11:07:27;;;;;;;3.35;2.30;;;;;;;;;;6248080;22;20015;-92
2022/08/10 11:10:06;;;;;;;4.50;2.38;;;;;;;;;;6248356;22;20007;-90
2022/08/10 11:13:00;;;;;;;3.42;2.13;;;;;;;;;;6254635;22;20028;-90
2022/08/10 11:15:26;;;;;;;5.47;2.38;;;;;;;;;;6181941;22;20020;-88
2022/08/10 11:17:57;;;;;;;6.03;2.55;;;;;;;;;;6267978;22;20004;-86
2022/08/10 11:20:32;;;;;;;3.67;2.28;;;;;;;;;;6270025;22;19985;-87
2022/08/10 11:23:03;;;;;;;3.42;2.35;;;;;;;;;;6270779;22;20004;-85
2022/08/10 11:25:30;;;;;;;3.65;2.05;;;;;;;;;;6270827;22;19988;-83
2022/08/10 11:27:59;;;;;;;2.40;2.15;;;;;;;;;;6269622;22;20042;-91
2022/08/10 11:30:31;;;;;;;4.15;2.10;;;;;;;;;;6266695;22;20079;-89
2022/08/10 11:33:10;;;;;;;5.60;2.47;;;;;;;;;;6254663;22;20027;-85
2022/08/10 11:36:07;;;;;;;2.60;2.10;;;;;;;;;;6251582;22;20091;-88
2022/08/10 11:39:03;;;;;;;2.83;2.42;;;;;;;;;;6249968;22;20053;-86
2022/08/10 11:41:45;;;;;;;3.58;2.70;;;;;;;;;;6250448;23;20296;-89
2022/08/10 11:44:28;;;;;;;3.80;2.33;;;;;;;;;;6251639;22;20000;-86
2022/08/10 11:47:22;;;;;;;2.30;2.10;;;;;;;;;;6252130;22;20008;-90
2022/08/10 11:50:02;;;;;;;3.10;2.25;;;;;;;;;;6241529;23;20004;-85
2022/08/10 11:52:37;;;;;;;3.88;2.20;;;;;;;;;;6249519;22;20004;-87
2022/08/10 16:53:18;;;;;;;3.92;2.72;;;;;;;;;;6309915;22;20079;-88
2022/08/10 16:55:47;;;;;;;3.38;2.42;;;;;;;;;;6308575;22;20019;-88
2022/08/10 16:58:16;;;;;;;7.95;7.25;;;;;;;;;;6308542;22;20068;-86
2022/08/10 17:00:44;;;;;;;3.78;3.47;;;;;;;;;;6308239;22;20003;-85
2022/08/10 17:03:14;;;;;;;3.55;3.10;;;;;;;;;;6308725;22;20326;-83
2022/08/10 17:05:42;;;;;;;4.65;4.22;;;;;;;;;;6333427;22;20007;-89
2022/08/10 17:08:28;;;;;;;16.00;6.93;;;;;;;;;;6309213;22;20061;-87
2022/08/10 17:10:56;;;;;;;6.28;4.60;;;;;;;;;;6309955;22;20064;-82
2022/08/10 17:13:28;;;;;;;4.53;3.60;;;;;;;;;;6308757;22;20007;-84
2022/08/10 17:16:01;;;;;;;11.43;4.82;;;;;;;;;;6309431;22;20236;-81
2022/08/10 17:18:28;;;;;;;5.55;3.90;;;;;;;;;;6309457;22;20370;-82
2022/08/10 17:21:03;;;;;;;5.10;3.30;;;;;;;;;;6309857;22;20064;-81
2022/08/10 17:23:32;;;;;;;13.05;6.47;;;;;;;;;;6308308;22;20476;-83
2022/08/10 17:26:00;;;;;;;;;;;;;;;;;;6309559;22;20003;-81
2022/08/10 17:28:29;;;;;;;5.85;3.92;;;;;;;;;;6308384;22;19907;-82
2022/08/10 17:31:06;;;;;;;5.20;3.55;;;;;;;;;;6308125;22;19999;-83
2022/08/10 17:33:36;;;;;;;3.80;3.40;;;;;;;;;;6308187;22;20326;-82
2022/08/10 17:36:10;;;;;;;4.40;3.78;;;;;;;;;;6310956;22;20004;-82
2022/08/10 17:38:37;;;;;;;5.80;4.28;;;;;;;;;;6334805;22;20000;-81
2022/08/10 17:41:11;;;;;;;6.20;3.33;;;;;;;;;;6309340;22;20000;-81
2022/08/10 17:43:38;;;;;;;4.75;3.30;;;;;;;;;;6308307;22;20031;-82
2022/08/10 17:46:06;;;;;;;4.80;3.88;;;;;;;;;;6310243;22;20003;-81
2022/08/10 17:48:35;;;;;;;5.97;4.70;;;;;;;;;;6308784;22;20124;-87
2022/08/10 17:51:04;;;;;;;3.97;3.58;;;;;;;;;;6309375;22;20003;-85
2022/08/10 17:53:40;;;;;;;5.03;3.42;;;;;;;;;;6309401;22;20027;-88
2022/08/10 17:56:07;;;;;;;4.40;3.70;;;;;;;;;;6309173;22;20361;-83
2022/08/10 17:58:34;;;;;;;4.55;3.35;;;;;;;;;;6309998;22;19999;-83
2022/08/10 18:01:02;;;;;;;5.63;3.22;;;;;;;;;;6308213;22;20079;-83
2022/08/10 18:03:32;;;;;;;5.45;4.13;;;;;;;;;;6309825;22;20052;-85
2022/08/10 18:06:01;;;;;;;3.78;3.42;;;;;;;;;;6309680;22;20003;-83
2022/08/10 18:08:38;;;;;;;;;;;;;;;;;;6311045;22;19999;-87
2022/08/10 18:11:05;;;;;;;3.83;3.03;;;;;;;;;;6310519;22;20314;-89
2022/08/10 18:13:33;;;;;;;3.97;3.58;;;;;;;;;;6310204;22;20004;-85
2022/08/10 18:16:00;;;;;;;5.38;4.55;;;;;;;;;;6312702;22;19999;-86
2022/08/10 18:18:28;;;;;;;4.68;4.15;;;;;;;;;;6315377;22;20011;-92
2022/08/10 18:21:19;;;;;;;4.25;3.67;;;;;;;;;;6339348;22;20015;-87
2022/08/10 18:23:47;;;;;;;4.75;3.08;;;;;;;;;;6339434;22;20314;-88
2022/08/10 18:26:19;;;;;;;4.35;3.88;;;;;;;;;;6342160;22;20048;-83
2022/08/10 18:28:49;;;;;;;5.90;4.82;;;;;;;;;;6342116;22;20009;-90
2022/08/10 18:31:18;;;;;;;5.65;4.25;;;;;;;;;;6343405;22;20093;-94
2022/08/10 18:33:49;;;;;;;3.78;3.47;;;;;;;;;;6341544;22;19999;-87
2022/08/10 18:36:16;;;;;;;4.03;3.72;;;;;;;;;;6349199;22;20010;-91
2022/08/10 18:38:50;;;;;;;4.43;3.10;;;;;;;;;;6343739;22;20037;-94
2022/08/10 18:41:22;;;;;;;5.68;4.25;;;;;;;;;;6343482;22;20009;-91
2022/08/10 18:44:17;;;;;;;3.45;3.15;;;;;;;;;;6343469;22;20024;-89
2022/08/10 18:46:56;;;;;;;3.97;3.00;;;;;;;;;;6340247;22;20405;-93
2022/08/10 18:49:44;;;;;;;;;;;;;;;;;;6342052;22;20124;-95
2022/08/10 18:52:13;;;;;;;3.78;3.05;;;;;;;;;;6312840;22;19914;-94
2022/08/10 18:54:45;;;;;;;3.72;3.13;;;;;;;;;;6341668;22;20086;-94
2022/08/10 18:57:20;;;;;;;3.22;2.92;;;;;;;;;;6313828;22;20003;-94
2022/08/10 18:59:54;;;;;;;4.97;3.75;;;;;;;;;;6342644;22;20085;-91
2022/08/10 19:02:43;;;;;;;6.28;4.00;;;;;;;;;;6341716;22;19998;-95
2022/08/10 19:05:37;;;;;;;10.48;7.93;;;;;;;;;;6342379;22;20073;-94
2022/08/10 19:08:05;;;;;;;8.48;6.20;;;;;;;;;;6343876;22;20034;-93
2022/08/10 19:10:33;;;;;;;4.37;3.97;;;;;;;;;;6342690;22;20056;-93
2022/08/10 19:13:27;;;;;;;3.38;3.10;;;;;;;;;;6341698;22;19999;-93
2022/08/10 19:16:15;;;;;;;3.50;3.20;;;;;;;;;;6342139;22;20030;-94
2022/08/10 19:18:49;;;;;;;4.50;3.38;;;;;;;;;;6342431;22;20426;-93
2022/08/10 19:21:26;;;;;;;4.07;3.10;;;;;;;;;;6341668;22;20021;-93
2022/08/10 19:24:25;;;;;;;4.00;3.60;;;;;;;;;;6342248;22;20039;-91
2022/08/10 19:26:50;;;;;;;4.45;3.30;;;;;;;;;;6299952;22;20010;-91
2022/08/10 19:29:31;;;;;;;3.05;2.83;;;;;;;;;;6342141;22;20406;-94
2022/08/10 19:32:13;;;;;;;3.80;3.38;;;;;;;;;;6342356;22;19999;-93
2022/08/10 19:34:56;;;;;;;4.32;3.47;;;;;;;;;;6342129;22;20410;-90
2022/08/10 19:38:06;;;;;;;3.88;3.55;;;;;;;;;;6341419;22;20003;-94
2022/08/10 19:40:49;;;;;;;3.05;2.55;;;;;;;;;;6341549;22;19999;-94
2022/08/10 19:43:19;;;;;;;2.85;2.65;;;;;;;;;;6343156;22;19999;-90
2022/08/10 19:45:56;;;;;;;3.03;2.83;;;;;;;;;;6341732;22;20048;-90
2022/08/10 19:48:42;;;;;;;3.92;3.10;;;;;;;;;;6343299;22;20030;-90
2022/08/10 19:51:24;;;;;;;3.78;3.05;;;;;;;;;;6345717;22;20025;-88
2022/08/10 19:54:07;;;;;;;4.32;2.95;;;;;;;;;;6343697;22;20035;-90
2022/08/10 19:57:12;;;;;;;5.55;3.33;;;;;;;;;;6343923;22;20028;-92
2022/08/10 19:59:51;;;;;;;3.40;3.10;;;;;;;;;;6346274;22;20021;-91
2022/08/10 20:02:25;;;;;;;3.67;3.22;;;;;;;;;;6344911;22;19998;-93
2022/08/10 20:05:21;;;;;;;3.97;3.10;;;;;;;;;;6343632;22;20077;-94
2022/08/10 20:08:04;;;;;;;4.60;3.15;;;;;;;;;;6340999;22;20010;-85
2022/08/10 20:10:52;;;;;;;4.95;3.90;;;;;;;;;;6342892;22;20026;-93
2022/08/10 20:13:28;;;;;;;4.25;3.85;;;;;;;;;;6343125;22;20046;-91
2022/08/10 20:16:05;;;;;;;4.85;3.13;;;;;;;;;;6343713;22;20326;-91
2022/08/10 20:19:06;;;;;;;6.47;4.10;;;;;;;;;;6343903;22;20064;-90
2022/08/10 20:21:47;;;;;;;4.55;4.15;;;;;;;;;;6337044;22;20049;-93
2022/08/10 20:24:25;;;;;;;4.32;3.03;;;;;;;;;;6342662;22;20029;-88
2022/08/10 20:26:55;;;;;;;4.18;3.78;;;;;;;;;;6292972;22;20010;-86
2022/08/10 20:29:35;;;;;;;4.03;3.28;;;;;;;;;;6341743;22;19998;-91
2022/08/10 20:32:10;;;;;;;3.50;3.20;;;;;;;;;;6347975;22;20120;-82
2022/08/10 20:34:46;;;;;;;3.25;2.53;;;;;;;;;;6346357;22;20299;-86
2022/08/10 20:37:27;;;;;;;3.92;3.03;;;;;;;;;;6345866;22;20054;-90
2022/08/10 20:40:28;;;;;;;2.80;2.60;;;;;;;;;;6362028;22;20056;-85
2022/08/10 20:43:06;;;;;;;3.58;3.00;;;;;;;;;;6302488;22;20089;-87
2022/08/10 20:45:57;;;;;;;3.47;3.17;;;;;;;;;;6347805;22;20482;-83
2022/08/10 20:48:31;;;;;;;2.70;2.50;;;;;;;;;;6354000;22;19998;-83
2022/08/10 20:51:02;;;;;;;3.67;3.15;;;;;;;;;;6362166;22;20006;-92
2022/08/10 20:53:41;;;;;;;3.33;3.03;;;;;;;;;;6362273;22;19983;-85
2022/08/10 20:56:35;;;;;;;4.88;3.38;;;;;;;;;;6327758;22;20003;-88
2022/08/10 20:59:09;;;;;;;3.95;3.00;;;;;;;;;;6351340;22;20006;-89
2022/08/10 21:01:47;;;;;;;3.83;3.30;;;;;;;;;;6351811;22;20425;-84
2022/08/10 21:04:50;;;;;;;3.42;3.13;;;;;;;;;;6352076;22;20003;-84
2022/08/10 21:07:36;;;;;;;3.30;3.00;;;;;;;;;;6354347;22;20314;-89
2022/08/10 21:10:17;;;;;;;6.40;3.22;;;;;;;;;;6329985;22;20003;-86
2022/08/10 21:13:08;;;;;;;3.20;2.90;;;;;;;;;;6345803;22;20006;-87
2022/08/10 21:15:59;;;;;;;3.00;2.80;;;;;;;;;;6344360;22;20029;-94
2022/08/10 21:18:43;;;;;;;3.03;2.63;;;;;;;;;;6341130;22;20418;-92
2022/08/10 21:21:41;;;;;;;4.35;2.80;;;;;;;;;;6339789;22;20014;-91
2022/08/10 21:24:12;;;;;;;6.10;3.67;;;;;;;;;;6312807;22;20011;-94
